sensor_id;sensor_type;location;lat;lon;timestamp;P1;durP1;ratioP1;P2;durP2;ratioP2
3343;SDS011;1685;53.104;8.228;2023-03-01T00:00:43;44.27;;;24.00;;
3343;SDS011;1685;53.104;8.228;2023-03-01T00:03:11;39.13;;;24.20;;
3343;SDS011;1685;53.104;8.228;2023-03-01T00:05:44;49.93;;;25.03;;
3343;SDS011;1685;53.104;8.228;2023-03-01T00:08:11;43.17;;;23.47;;
3343;SDS011;1685;53.104;8.228;2023-03-01T00:10:38;35.37;;;22.63;;
3343;SDS011;1685;53.104;8.228;2023-03-01T00:13:04;41.70;;;23.17;;
3343;SDS011;1685;53.104;8.228;2023-03-01T00:15:31;40.17;;;22.47;;
3343;SDS011;1685;53.104;8.228;2023-03-01T00:17:59;42.40;;;24.80;;
3343;SDS011;1685;53.104;8.228;2023-03-01T00:20:26;45.70;;;24.40;;
3343;SDS011;1685;53.104;8.228;2023-03-01T00:22:54;43.17;;;23.83;;
3343;SDS011;1685;53.104;8.228;2023-03-01T00:25:21;46.43;;;23.40;;
3343;SDS011;1685;53.104;8.228;2023-03-01T00:27:48;39.17;;;22.27;;
3343;SDS011;1685;53.104;8.228;2023-03-01T00:30:15;36.97;;;21.93;;
3343;SDS011;1685;53.104;8.228;2023-03-01T00:32:42;42.47;;;24.03;;
3343;SDS011;1685;53.104;8.228;2023-03-01T00:35:08;37.77;;;22.43;;
3343;SDS011;1685;53.104;8.228;2023-03-01T00:37:35;43.83;;;21.03;;
3343;SDS011;1685;53.104;8.228;2023-03-01T00:40:04;37.10;;;22.33;;
3343;SDS011;1685;53.104;8.228;2023-03-01T00:42:32;37.00;;;23.17;;
3343;SDS011;1685;53.104;8.228;2023-03-01T00:44:58;34.47;;;22.50;;
3343;SDS011;1685;53.104;8.228;2023-03-01T00:47:25;35.90;;;21.00;;
3343;SDS011;1685;53.104;8.228;2023-03-01T00:49:54;42.87;;;22.30;;
3343;SDS011;1685;53.104;8.228;2023-03-01T00:52:21;30.43;;;19.17;;
3343;SDS011;1685;53.104;8.228;2023-03-01T00:54:48;36.70;;;20.47;;
3343;SDS011;1685;53.104;8.228;2023-03-01T00:57:19;32.93;;;21.00;;
3343;SDS011;1685;53.104;8.228;2023-03-01T00:59:45;38.83;;;21.87;;
3343;SDS011;1685;53.104;8.228;2023-03-01T01:02:12;33.13;;;19.67;;
3343;SDS011;1685;53.104;8.228;2023-03-01T01:04:40;34.40;;;21.00;;
3343;SDS011;1685;53.104;8.228;2023-03-01T01:07:07;31.60;;;20.67;;
3343;SDS011;1685;53.104;8.228;2023-03-01T01:09:34;34.00;;;21.37;;
3343;SDS011;1685;53.104;8.228;2023-03-01T01:12:01;33.27;;;21.00;;
3343;SDS011;1685;53.104;8.228;2023-03-01T01:14:30;36.47;;;20.90;;
3343;SDS011;1685;53.104;8.228;2023-03-01T01:16:57;37.20;;;21.53;;
3343;SDS011;1685;53.104;8.228;2023-03-01T01:19:24;34.30;;;21.30;;
3343;SDS011;1685;53.104;8.228;2023-03-01T01:21:52;34.77;;;21.30;;
3343;SDS011;1685;53.104;8.228;2023-03-01T01:24:19;30.73;;;20.20;;
3343;SDS011;1685;53.104;8.228;2023-03-01T01:26:45;29.93;;;19.87;;
3343;SDS011;1685;53.104;8.228;2023-03-01T01:29:12;35.37;;;21.37;;
3343;SDS011;1685;53.104;8.228;2023-03-01T01:31:41;39.93;;;21.20;;
3343;SDS011;1685;53.104;8.228;2023-03-01T01:34:12;35.90;;;21.60;;
3343;SDS011;1685;53.104;8.228;2023-03-01T01:36:40;33.27;;;19.90;;
3343;SDS011;1685;53.104;8.228;2023-03-01T01:39:07;33.97;;;19.73;;
3343;SDS011;1685;53.104;8.228;2023-03-01T01:41:38;31.03;;;19.87;;
3343;SDS011;1685;53.104;8.228;2023-03-01T01:44:16;33.70;;;20.10;;
3343;SDS011;1685;53.104;8.228;2023-03-01T01:46:47;38.17;;;20.33;;
3343;SDS011;1685;53.104;8.228;2023-03-01T01:49:17;38.67;;;21.47;;
3343;SDS011;1685;53.104;8.228;2023-03-01T01:51:48;38.87;;;19.77;;
3343;SDS011;1685;53.104;8.228;2023-03-01T01:54:21;37.73;;;21.60;;
3343;SDS011;1685;53.104;8.228;2023-03-01T01:56:52;34.67;;;20.07;;
3343;SDS011;1685;53.104;8.228;2023-03-01T01:59:21;35.80;;;22.30;;
3343;SDS011;1685;53.104;8.228;2023-03-01T02:01:51;42.00;;;20.90;;
3343;SDS011;1685;53.104;8.228;2023-03-01T02:04:18;32.03;;;18.67;;
3343;SDS011;1685;53.104;8.228;2023-03-01T02:06:47;37.97;;;19.50;;
3343;SDS011;1685;53.104;8.228;2023-03-01T02:09:20;32.50;;;19.53;;
3343;SDS011;1685;53.104;8.228;2023-03-01T02:11:49;35.33;;;19.30;;
3343;SDS011;1685;53.104;8.228;2023-03-01T02:14:17;35.63;;;20.30;;
3343;SDS011;1685;53.104;8.228;2023-03-01T02:16:44;30.23;;;19.77;;
3343;SDS011;1685;53.104;8.228;2023-03-01T02:19:13;38.40;;;21.50;;
3343;SDS011;1685;53.104;8.228;2023-03-01T02:21:48;31.00;;;18.50;;
3343;SDS011;1685;53.104;8.228;2023-03-01T02:24:26;36.90;;;20.20;;
3343;SDS011;1685;53.104;8.228;2023-03-01T02:26:59;37.73;;;19.80;;
3343;SDS011;1685;53.104;8.228;2023-03-01T02:29:28;38.47;;;19.30;;
3343;SDS011;1685;53.104;8.228;2023-03-01T02:31:56;29.87;;;20.00;;
3343;SDS011;1685;53.104;8.228;2023-03-01T02:34:26;35.20;;;19.37;;
3343;SDS011;1685;53.104;8.228;2023-03-01T02:36:55;36.33;;;20.03;;
3343;SDS011;1685;53.104;8.228;2023-03-01T02:39:26;30.57;;;18.53;;
3343;SDS011;1685;53.104;8.228;2023-03-01T02:41:57;33.00;;;18.30;;
3343;SDS011;1685;53.104;8.228;2023-03-01T02:44:25;30.77;;;19.47;;
3343;SDS011;1685;53.104;8.228;2023-03-01T02:46:54;29.37;;;18.83;;
3343;SDS011;1685;53.104;8.228;2023-03-01T02:49:24;35.50;;;18.97;;
3343;SDS011;1685;53.104;8.228;2023-03-01T02:54:58;28.07;;;17.30;;
3343;SDS011;1685;53.104;8.228;2023-03-01T02:57:27;30.27;;;19.60;;
3343;SDS011;1685;53.104;8.228;2023-03-01T02:59:55;29.43;;;18.30;;
3343;SDS011;1685;53.104;8.228;2023-03-01T03:02:25;32.60;;;19.77;;
3343;SDS011;1685;53.104;8.228;2023-03-01T03:05:02;27.60;;;17.33;;
3343;SDS011;1685;53.104;8.228;2023-03-01T03:07:31;29.63;;;17.60;;
3343;SDS011;1685;53.104;8.228;2023-03-01T03:09:59;30.53;;;18.33;;
3343;SDS011;1685;53.104;8.228;2023-03-01T03:12:25;26.80;;;17.83;;
3343;SDS011;1685;53.104;8.228;2023-03-01T03:14:52;29.20;;;19.03;;
3343;SDS011;1685;53.104;8.228;2023-03-01T03:17:19;30.90;;;17.83;;
3343;SDS011;1685;53.104;8.228;2023-03-01T03:19:48;40.87;;;19.53;;
3343;SDS011;1685;53.104;8.228;2023-03-01T03:22:15;32.33;;;18.90;;
3343;SDS011;1685;53.104;8.228;2023-03-01T03:24:41;36.70;;;18.30;;
3343;SDS011;1685;53.104;8.228;2023-03-01T03:27:08;31.70;;;18.40;;
3343;SDS011;1685;53.104;8.228;2023-03-01T03:29:35;33.60;;;18.63;;
3343;SDS011;1685;53.104;8.228;2023-03-01T03:32:02;30.67;;;17.70;;
3343;SDS011;1685;53.104;8.228;2023-03-01T03:34:30;33.60;;;19.17;;
3343;SDS011;1685;53.104;8.228;2023-03-01T03:36:58;28.50;;;18.30;;
3343;SDS011;1685;53.104;8.228;2023-03-01T03:39:25;27.63;;;18.33;;
3343;SDS011;1685;53.104;8.228;2023-03-01T03:41:52;32.00;;;19.10;;
3343;SDS011;1685;53.104;8.228;2023-03-01T03:44:19;31.87;;;20.40;;
3343;SDS011;1685;53.104;8.228;2023-03-01T03:46:46;32.27;;;19.00;;
3343;SDS011;1685;53.104;8.228;2023-03-01T03:49:13;35.00;;;18.97;;
3343;SDS011;1685;53.104;8.228;2023-03-01T03:51:40;35.47;;;19.73;;
3343;SDS011;1685;53.104;8.228;2023-03-01T03:54:08;42.93;;;19.97;;
3343;SDS011;1685;53.104;8.228;2023-03-01T03:56:36;32.77;;;18.90;;
3343;SDS011;1685;53.104;8.228;2023-03-01T03:59:02;29.13;;;18.27;;
3343;SDS011;1685;53.104;8.228;2023-03-01T04:01:30;29.33;;;18.33;;
3343;SDS011;1685;53.104;8.228;2023-03-01T04:03:58;38.23;;;19.40;;
3343;SDS011;1685;53.104;8.228;2023-03-01T04:06:29;28.30;;;17.40;;
3343;SDS011;1685;53.104;8.228;2023-03-01T04:08:56;33.33;;;18.97;;
3343;SDS011;1685;53.104;8.228;2023-03-01T04:11:26;29.00;;;17.90;;
3343;SDS011;1685;53.104;8.228;2023-03-01T04:13:54;32.30;;;18.37;;
3343;SDS011;1685;53.104;8.228;2023-03-01T04:16:22;35.63;;;17.83;;
3343;SDS011;1685;53.104;8.228;2023-03-01T04:18:49;29.43;;;18.10;;
3343;SDS011;1685;53.104;8.228;2023-03-01T04:21:17;30.67;;;17.70;;
3343;SDS011;1685;53.104;8.228;2023-03-01T04:23:45;34.70;;;18.80;;
3343;SDS011;1685;53.104;8.228;2023-03-01T04:26:12;33.67;;;18.57;;
3343;SDS011;1685;53.104;8.228;2023-03-01T04:28:40;27.40;;;18.67;;
3343;SDS011;1685;53.104;8.228;2023-03-01T04:31:10;35.63;;;18.80;;
3343;SDS011;1685;53.104;8.228;2023-03-01T04:33:40;28.30;;;17.20;;
3343;SDS011;1685;53.104;8.228;2023-03-01T04:36:08;29.97;;;17.53;;
3343;SDS011;1685;53.104;8.228;2023-03-01T04:38:36;30.60;;;17.80;;
3343;SDS011;1685;53.104;8.228;2023-03-01T04:41:04;30.50;;;16.47;;
3343;SDS011;1685;53.104;8.228;2023-03-01T04:43:31;27.83;;;16.17;;
3343;SDS011;1685;53.104;8.228;2023-03-01T04:46:03;30.53;;;16.63;;
3343;SDS011;1685;53.104;8.228;2023-03-01T04:48:33;30.80;;;17.57;;
3343;SDS011;1685;53.104;8.228;2023-03-01T04:51:01;30.67;;;17.47;;
3343;SDS011;1685;53.104;8.228;2023-03-01T04:53:28;28.70;;;17.60;;
3343;SDS011;1685;53.104;8.228;2023-03-01T04:55:55;27.60;;;16.63;;
3343;SDS011;1685;53.104;8.228;2023-03-01T04:58:23;30.70;;;16.17;;
3343;SDS011;1685;53.104;8.228;2023-03-01T05:00:50;31.80;;;18.70;;
3343;SDS011;1685;53.104;8.228;2023-03-01T05:03:18;29.53;;;18.80;;
3343;SDS011;1685;53.104;8.228;2023-03-01T05:05:46;29.27;;;18.67;;
3343;SDS011;1685;53.104;8.228;2023-03-01T05:08:14;30.63;;;19.10;;
3343;SDS011;1685;53.104;8.228;2023-03-01T05:10:43;23.80;;;15.30;;
3343;SDS011;1685;53.104;8.228;2023-03-01T05:13:12;29.67;;;19.57;;
3343;SDS011;1685;53.104;8.228;2023-03-01T05:15:40;29.60;;;17.30;;
3343;SDS011;1685;53.104;8.228;2023-03-01T05:18:07;28.47;;;16.57;;
3343;SDS011;1685;53.104;8.228;2023-03-01T05:20:37;23.90;;;15.20;;
3343;SDS011;1685;53.104;8.228;2023-03-01T05:23:04;31.33;;;17.70;;
3343;SDS011;1685;53.104;8.228;2023-03-01T05:25:32;29.83;;;16.93;;
3343;SDS011;1685;53.104;8.228;2023-03-01T05:28:00;36.17;;;20.07;;
3343;SDS011;1685;53.104;8.228;2023-03-01T05:30:29;45.43;;;22.87;;
3343;SDS011;1685;53.104;8.228;2023-03-01T05:32:57;33.83;;;19.80;;
3343;SDS011;1685;53.104;8.228;2023-03-01T05:35:24;30.93;;;18.20;;
3343;SDS011;1685;53.104;8.228;2023-03-01T05:37:53;29.83;;;16.67;;
3343;SDS011;1685;53.104;8.228;2023-03-01T05:40:20;26.73;;;15.20;;
3343;SDS011;1685;53.104;8.228;2023-03-01T05:42:49;33.43;;;15.63;;
3343;SDS011;1685;53.104;8.228;2023-03-01T05:45:18;24.90;;;16.20;;
3343;SDS011;1685;53.104;8.228;2023-03-01T05:47:45;26.60;;;15.87;;
3343;SDS011;1685;53.104;8.228;2023-03-01T05:50:14;25.40;;;15.20;;
3343;SDS011;1685;53.104;8.228;2023-03-01T05:52:44;23.10;;;14.83;;
3343;SDS011;1685;53.104;8.228;2023-03-01T05:55:13;22.23;;;15.60;;
3343;SDS011;1685;53.104;8.228;2023-03-01T05:57:39;24.83;;;15.20;;
3343;SDS011;1685;53.104;8.228;2023-03-01T06:00:07;27.33;;;15.87;;
3343;SDS011;1685;53.104;8.228;2023-03-01T06:02:35;27.23;;;15.40;;
3343;SDS011;1685;53.104;8.228;2023-03-01T06:05:03;29.43;;;15.20;;
3343;SDS011;1685;53.104;8.228;2023-03-01T06:07:30;21.57;;;14.87;;
3343;SDS011;1685;53.104;8.228;2023-03-01T06:09:57;26.20;;;15.50;;
3343;SDS011;1685;53.104;8.228;2023-03-01T06:12:25;26.60;;;15.87;;
3343;SDS011;1685;53.104;8.228;2023-03-01T06:14:52;22.63;;;15.00;;
3343;SDS011;1685;53.104;8.228;2023-03-01T06:17:19;27.93;;;15.73;;
3343;SDS011;1685;53.104;8.228;2023-03-01T06:19:46;25.50;;;15.67;;
3343;SDS011;1685;53.104;8.228;2023-03-01T06:22:13;24.10;;;15.07;;
3343;SDS011;1685;53.104;8.228;2023-03-01T06:24:40;24.30;;;15.93;;
3343;SDS011;1685;53.104;8.228;2023-03-01T06:27:07;25.23;;;15.33;;
3343;SDS011;1685;53.104;8.228;2023-03-01T06:29:35;31.63;;;16.90;;
3343;SDS011;1685;53.104;8.228;2023-03-01T06:32:02;33.20;;;16.73;;
3343;SDS011;1685;53.104;8.228;2023-03-01T06:34:29;25.53;;;17.20;;
3343;SDS011;1685;53.104;8.228;2023-03-01T06:36:56;29.27;;;16.77;;
3343;SDS011;1685;53.104;8.228;2023-03-01T06:39:23;23.33;;;15.20;;
3343;SDS011;1685;53.104;8.228;2023-03-01T06:41:50;27.33;;;17.43;;
3343;SDS011;1685;53.104;8.228;2023-03-01T06:44:16;25.43;;;16.00;;
3343;SDS011;1685;53.104;8.228;2023-03-01T06:46:45;23.50;;;15.40;;
3343;SDS011;1685;53.104;8.228;2023-03-01T06:49:11;27.33;;;15.47;;
3343;SDS011;1685;53.104;8.228;2023-03-01T06:51:41;27.00;;;15.13;;
3343;SDS011;1685;53.104;8.228;2023-03-01T06:54:07;24.27;;;16.70;;
3343;SDS011;1685;53.104;8.228;2023-03-01T06:56:35;24.50;;;15.50;;
3343;SDS011;1685;53.104;8.228;2023-03-01T06:59:02;27.83;;;14.80;;
3343;SDS011;1685;53.104;8.228;2023-03-01T07:01:29;23.33;;;14.30;;
3343;SDS011;1685;53.104;8.228;2023-03-01T07:03:57;55.53;;;26.83;;
3343;SDS011;1685;53.104;8.228;2023-03-01T07:06:24;165.70;;;76.27;;
3343;SDS011;1685;53.104;8.228;2023-03-01T07:08:51;80.87;;;41.40;;
3343;SDS011;1685;53.104;8.228;2023-03-01T07:11:18;31.20;;;18.20;;
3343;SDS011;1685;53.104;8.228;2023-03-01T07:13:45;25.87;;;16.70;;
3343;SDS011;1685;53.104;8.228;2023-03-01T07:16:12;22.27;;;15.47;;
3343;SDS011;1685;53.104;8.228;2023-03-01T07:18:39;30.87;;;17.80;;
3343;SDS011;1685;53.104;8.228;2023-03-01T07:21:09;26.03;;;15.90;;
3343;SDS011;1685;53.104;8.228;2023-03-01T07:23:38;26.10;;;14.57;;
3343;SDS011;1685;53.104;8.228;2023-03-01T07:26:05;22.60;;;15.50;;
3343;SDS011;1685;53.104;8.228;2023-03-01T07:28:32;30.90;;;19.27;;
3343;SDS011;1685;53.104;8.228;2023-03-01T07:31:01;24.27;;;16.67;;
3343;SDS011;1685;53.104;8.228;2023-03-01T07:33:28;25.73;;;17.43;;
3343;SDS011;1685;53.104;8.228;2023-03-01T07:35:55;23.50;;;16.20;;
3343;SDS011;1685;53.104;8.228;2023-03-01T07:38:25;32.37;;;16.40;;
3343;SDS011;1685;53.104;8.228;2023-03-01T07:40:52;30.83;;;18.00;;
3343;SDS011;1685;53.104;8.228;2023-03-01T07:43:19;27.70;;;18.90;;
3343;SDS011;1685;53.104;8.228;2023-03-01T07:45:46;27.13;;;18.30;;
3343;SDS011;1685;53.104;8.228;2023-03-01T07:48:13;26.43;;;17.40;;
3343;SDS011;1685;53.104;8.228;2023-03-01T07:50:40;28.63;;;18.27;;
3343;SDS011;1685;53.104;8.228;2023-03-01T07:53:07;30.20;;;18.50;;
3343;SDS011;1685;53.104;8.228;2023-03-01T07:55:36;26.27;;;17.00;;
3343;SDS011;1685;53.104;8.228;2023-03-01T07:58:02;30.23;;;18.80;;
3343;SDS011;1685;53.104;8.228;2023-03-01T08:00:30;29.07;;;19.27;;
3343;SDS011;1685;53.104;8.228;2023-03-01T08:02:58;27.50;;;17.80;;
3343;SDS011;1685;53.104;8.228;2023-03-01T08:05:25;28.50;;;18.60;;
3343;SDS011;1685;53.104;8.228;2023-03-01T08:07:52;34.03;;;17.80;;
3343;SDS011;1685;53.104;8.228;2023-03-01T08:10:19;31.17;;;18.97;;
3343;SDS011;1685;53.104;8.228;2023-03-01T08:12:47;38.57;;;21.17;;
3343;SDS011;1685;53.104;8.228;2023-03-01T08:15:16;38.57;;;23.10;;
3343;SDS011;1685;53.104;8.228;2023-03-01T08:17:43;36.37;;;22.37;;
3343;SDS011;1685;53.104;8.228;2023-03-01T08:20:11;42.33;;;22.57;;
3343;SDS011;1685;53.104;8.228;2023-03-01T08:22:38;32.10;;;20.67;;
3343;SDS011;1685;53.104;8.228;2023-03-01T08:25:05;34.33;;;22.10;;
3343;SDS011;1685;53.104;8.228;2023-03-01T08:27:32;41.80;;;21.47;;
3343;SDS011;1685;53.104;8.228;2023-03-01T08:30:00;26.93;;;19.83;;
3343;SDS011;1685;53.104;8.228;2023-03-01T08:32:27;35.60;;;22.20;;
3343;SDS011;1685;53.104;8.228;2023-03-01T08:34:54;34.60;;;21.50;;
3343;SDS011;1685;53.104;8.228;2023-03-01T08:37:21;32.53;;;20.97;;
3343;SDS011;1685;53.104;8.228;2023-03-01T08:39:48;28.47;;;20.67;;
3343;SDS011;1685;53.104;8.228;2023-03-01T08:42:15;36.37;;;21.10;;
3343;SDS011;1685;53.104;8.228;2023-03-01T08:44:42;31.10;;;20.17;;
3343;SDS011;1685;53.104;8.228;2023-03-01T08:47:10;31.90;;;20.53;;
3343;SDS011;1685;53.104;8.228;2023-03-01T08:49:37;25.87;;;17.87;;
3343;SDS011;1685;53.104;8.228;2023-03-01T08:52:04;27.23;;;18.57;;
3343;SDS011;1685;53.104;8.228;2023-03-01T08:54:31;28.43;;;18.30;;
3343;SDS011;1685;53.104;8.228;2023-03-01T08:56:58;23.70;;;17.67;;
3343;SDS011;1685;53.104;8.228;2023-03-01T08:59:27;26.67;;;16.57;;
3343;SDS011;1685;53.104;8.228;2023-03-01T09:01:55;19.87;;;14.83;;
3343;SDS011;1685;53.104;8.228;2023-03-01T09:04:23;20.27;;;14.90;;
3343;SDS011;1685;53.104;8.228;2023-03-01T09:06:50;20.30;;;14.03;;
3343;SDS011;1685;53.104;8.228;2023-03-01T09:09:17;18.80;;;14.23;;
3343;SDS011;1685;53.104;8.228;2023-03-01T09:11:44;21.67;;;15.33;;
3343;SDS011;1685;53.104;8.228;2023-03-01T09:14:11;20.43;;;15.33;;
3343;SDS011;1685;53.104;8.228;2023-03-01T09:16:38;21.03;;;14.83;;
3343;SDS011;1685;53.104;8.228;2023-03-01T09:19:05;23.30;;;15.50;;
3343;SDS011;1685;53.104;8.228;2023-03-01T09:21:34;24.93;;;15.80;;
3343;SDS011;1685;53.104;8.228;2023-03-01T09:24:01;20.40;;;14.00;;
3343;SDS011;1685;53.104;8.228;2023-03-01T09:26:28;15.90;;;11.80;;
3343;SDS011;1685;53.104;8.228;2023-03-01T09:28:55;15.40;;;12.23;;
3343;SDS011;1685;53.104;8.228;2023-03-01T09:31:23;17.90;;;11.00;;
3343;SDS011;1685;53.104;8.228;2023-03-01T09:33:51;13.05;;;10.02;;
3343;SDS011;1685;53.104;8.228;2023-03-01T09:36:20;15.37;;;12.70;;
3343;SDS011;1685;53.104;8.228;2023-03-01T09:38:50;14.87;;;11.43;;
3343;SDS011;1685;53.104;8.228;2023-03-01T09:41:32;15.40;;;11.50;;
3343;SDS011;1685;53.104;8.228;2023-03-01T09:44:13;12.07;;;10.00;;
3343;SDS011;1685;53.104;8.228;2023-03-01T09:46:46;11.07;;;8.40;;
3343;SDS011;1685;53.104;8.228;2023-03-01T09:49:14;8.77;;;7.23;;
3343;SDS011;1685;53.104;8.228;2023-03-01T09:51:55;8.07;;;6.73;;
3343;SDS011;1685;53.104;8.228;2023-03-01T09:54:26;10.97;;;6.90;;
3343;SDS011;1685;53.104;8.228;2023-03-01T09:59:56;8.88;;;5.70;;
3343;SDS011;1685;53.104;8.228;2023-03-01T10:02:27;9.88;;;6.80;;
3343;SDS011;1685;53.104;8.228;2023-03-01T10:04:59;9.60;;;7.40;;
3343;SDS011;1685;53.104;8.228;2023-03-01T10:07:37;9.67;;;7.80;;
3343;SDS011;1685;53.104;8.228;2023-03-01T10:10:19;7.50;;;6.50;;
3343;SDS011;1685;53.104;8.228;2023-03-01T10:12:52;11.50;;;8.03;;
3343;SDS011;1685;53.104;8.228;2023-03-01T10:15:22;12.47;;;7.73;;
3343;SDS011;1685;53.104;8.228;2023-03-01T10:18:00;9.73;;;6.50;;
3343;SDS011;1685;53.104;8.228;2023-03-01T10:20:33;7.13;;;6.20;;
3343;SDS011;1685;53.104;8.228;2023-03-01T10:23:09;17.00;;;6.60;;
3343;SDS011;1685;53.104;8.228;2023-03-01T10:25:43;10.83;;;5.43;;
3343;SDS011;1685;53.104;8.228;2023-03-01T10:28:20;6.57;;;5.27;;
3343;SDS011;1685;53.104;8.228;2023-03-01T10:30:51;12.43;;;6.10;;
3343;SDS011;1685;53.104;8.228;2023-03-01T10:33:20;9.03;;;6.10;;
3343;SDS011;1685;53.104;8.228;2023-03-01T10:35:49;7.67;;;5.50;;
3343;SDS011;1685;53.104;8.228;2023-03-01T10:38:16;4.70;;;4.30;;
3343;SDS011;1685;53.104;8.228;2023-03-01T10:40:53;7.20;;;5.57;;
3343;SDS011;1685;53.104;8.228;2023-03-01T10:43:21;7.27;;;5.37;;
3343;SDS011;1685;53.104;8.228;2023-03-01T10:45:49;7.80;;;6.80;;
3343;SDS011;1685;53.104;8.228;2023-03-01T10:48:17;8.77;;;7.53;;
3343;SDS011;1685;53.104;8.228;2023-03-01T10:50:46;9.43;;;5.93;;
3343;SDS011;1685;53.104;8.228;2023-03-01T10:53:20;8.90;;;7.23;;
3343;SDS011;1685;53.104;8.228;2023-03-01T10:55:57;9.20;;;6.43;;
3343;SDS011;1685;53.104;8.228;2023-03-01T10:58:26;6.50;;;5.73;;
3343;SDS011;1685;53.104;8.228;2023-03-01T11:00:54;6.57;;;5.73;;
3343;SDS011;1685;53.104;8.228;2023-03-01T11:03:22;7.43;;;6.60;;
3343;SDS011;1685;53.104;8.228;2023-03-01T11:05:54;8.80;;;5.70;;
3343;SDS011;1685;53.104;8.228;2023-03-01T11:08:30;7.77;;;5.67;;
3343;SDS011;1685;53.104;8.228;2023-03-01T11:11:25;8.10;;;6.77;;
3343;SDS011;1685;53.104;8.228;2023-03-01T11:13:58;9.53;;;6.40;;
3343;SDS011;1685;53.104;8.228;2023-03-01T11:16:27;8.37;;;7.20;;
3343;SDS011;1685;53.104;8.228;2023-03-01T11:18:58;9.23;;;7.40;;
3343;SDS011;1685;53.104;8.228;2023-03-01T11:21:26;9.13;;;7.67;;
3343;SDS011;1685;53.104;8.228;2023-03-01T11:23:57;12.57;;;8.57;;
3343;SDS011;1685;53.104;8.228;2023-03-01T11:26:27;12.10;;;9.70;;
3343;SDS011;1685;53.104;8.228;2023-03-01T11:28:58;14.83;;;9.93;;
3343;SDS011;1685;53.104;8.228;2023-03-01T11:31:30;14.30;;;10.13;;
3343;SDS011;1685;53.104;8.228;2023-03-01T11:33:58;13.03;;;10.33;;
3343;SDS011;1685;53.104;8.228;2023-03-01T11:36:30;12.20;;;9.83;;
3343;SDS011;1685;53.104;8.228;2023-03-01T11:39:02;13.80;;;10.23;;
3343;SDS011;1685;53.104;8.228;2023-03-01T11:41:38;13.30;;;10.07;;
3343;SDS011;1685;53.104;8.228;2023-03-01T11:44:10;13.90;;;10.23;;
3343;SDS011;1685;53.104;8.228;2023-03-01T11:46:49;15.77;;;11.40;;
3343;SDS011;1685;53.104;8.228;2023-03-01T11:49:34;16.20;;;11.30;;
3343;SDS011;1685;53.104;8.228;2023-03-01T11:52:21;12.37;;;10.40;;
3343;SDS011;1685;53.104;8.228;2023-03-01T11:55:02;12.10;;;10.67;;
3343;SDS011;1685;53.104;8.228;2023-03-01T11:57:49;13.57;;;10.80;;
3343;SDS011;1685;53.104;8.228;2023-03-01T12:03:28;18.03;;;12.10;;
3343;SDS011;1685;53.104;8.228;2023-03-01T12:06:05;14.37;;;12.30;;
3343;SDS011;1685;53.104;8.228;2023-03-01T12:08:49;16.00;;;12.50;;
3343;SDS011;1685;53.104;8.228;2023-03-01T12:11:28;16.80;;;12.50;;
3343;SDS011;1685;53.104;8.228;2023-03-01T12:14:12;15.60;;;12.00;;
3343;SDS011;1685;53.104;8.228;2023-03-01T12:16:59;13.77;;;11.37;;
3343;SDS011;1685;53.104;8.228;2023-03-01T12:22:46;13.93;;;10.73;;
3343;SDS011;1685;53.104;8.228;2023-03-01T12:25:31;14.20;;;10.77;;
3343;SDS011;1685;53.104;8.228;2023-03-01T12:31:07;14.80;;;11.97;;
3343;SDS011;1685;53.104;8.228;2023-03-01T12:34:00;14.20;;;10.90;;
3343;SDS011;1685;53.104;8.228;2023-03-01T12:39:37;15.67;;;11.67;;
3343;SDS011;1685;53.104;8.228;2023-03-01T12:42:13;17.60;;;11.50;;
3343;SDS011;1685;53.104;8.228;2023-03-01T12:44:54;12.60;;;10.63;;
3343;SDS011;1685;53.104;8.228;2023-03-01T12:47:35;14.10;;;11.23;;
3343;SDS011;1685;53.104;8.228;2023-03-01T12:50:17;17.57;;;12.03;;
3343;SDS011;1685;53.104;8.228;2023-03-01T12:52:47;14.82;;;9.88;;
3343;SDS011;1685;53.104;8.228;2023-03-01T12:55:24;15.18;;;10.18;;
3343;SDS011;1685;53.104;8.228;2023-03-01T12:57:57;19.27;;;12.37;;
3343;SDS011;1685;53.104;8.228;2023-03-01T13:00:36;17.87;;;12.40;;
3343;SDS011;1685;53.104;8.228;2023-03-01T13:03:12;16.03;;;12.90;;
3343;SDS011;1685;53.104;8.228;2023-03-01T13:05:51;13.30;;;11.80;;
3343;SDS011;1685;53.104;8.228;2023-03-01T13:08:30;20.30;;;13.70;;
3343;SDS011;1685;53.104;8.228;2023-03-01T13:11:03;15.73;;;12.07;;
3343;SDS011;1685;53.104;8.228;2023-03-01T13:13:32;19.37;;;12.33;;
3343;SDS011;1685;53.104;8.228;2023-03-01T13:16:19;21.00;;;13.63;;
3343;SDS011;1685;53.104;8.228;2023-03-01T13:18:50;15.87;;;12.73;;
3343;SDS011;1685;53.104;8.228;2023-03-01T13:21:33;18.57;;;13.37;;
3343;SDS011;1685;53.104;8.228;2023-03-01T13:24:00;17.67;;;13.17;;
3343;SDS011;1685;53.104;8.228;2023-03-01T13:26:27;16.92;;;11.80;;
3343;SDS011;1685;53.104;8.228;2023-03-01T13:28:54;18.33;;;13.53;;
3343;SDS011;1685;53.104;8.228;2023-03-01T13:34:53;17.80;;;13.93;;
3343;SDS011;1685;53.104;8.228;2023-03-01T13:37:25;22.23;;;13.23;;
3343;SDS011;1685;53.104;8.228;2023-03-01T13:39:57;20.37;;;13.30;;
3343;SDS011;1685;53.104;8.228;2023-03-01T13:42:37;18.13;;;13.70;;
3343;SDS011;1685;53.104;8.228;2023-03-01T13:45:14;19.83;;;13.50;;
3343;SDS011;1685;53.104;8.228;2023-03-01T13:47:48;20.63;;;14.43;;
3343;SDS011;1685;53.104;8.228;2023-03-01T13:50:20;18.13;;;12.50;;
3343;SDS011;1685;53.104;8.228;2023-03-01T13:52:50;21.13;;;13.03;;
3343;SDS011;1685;53.104;8.228;2023-03-01T13:55:23;20.70;;;15.10;;
3343;SDS011;1685;53.104;8.228;2023-03-01T13:57:53;21.50;;;14.90;;
3343;SDS011;1685;53.104;8.228;2023-03-01T14:00:30;17.60;;;13.57;;
3343;SDS011;1685;53.104;8.228;2023-03-01T14:03:03;22.00;;;14.30;;
3343;SDS011;1685;53.104;8.228;2023-03-01T14:05:36;24.33;;;14.77;;
3343;SDS011;1685;53.104;8.228;2023-03-01T14:08:03;17.50;;;13.83;;
3343;SDS011;1685;53.104;8.228;2023-03-01T14:10:31;22.83;;;14.10;;
3343;SDS011;1685;53.104;8.228;2023-03-01T14:13:08;19.83;;;14.07;;
3343;SDS011;1685;53.104;8.228;2023-03-01T14:15:50;20.07;;;14.63;;
3343;SDS011;1685;53.104;8.228;2023-03-01T14:18:29;21.00;;;15.80;;
3343;SDS011;1685;53.104;8.228;2023-03-01T14:21:07;19.70;;;14.07;;
3343;SDS011;1685;53.104;8.228;2023-03-01T14:23:33;18.40;;;14.10;;
3343;SDS011;1685;53.104;8.228;2023-03-01T14:26:01;19.27;;;14.37;;
3343;SDS011;1685;53.104;8.228;2023-03-01T14:28:29;23.27;;;15.03;;
3343;SDS011;1685;53.104;8.228;2023-03-01T14:30:58;18.30;;;14.37;;
3343;SDS011;1685;53.104;8.228;2023-03-01T14:33:27;18.43;;;13.73;;
3343;SDS011;1685;53.104;8.228;2023-03-01T14:35:56;24.93;;;16.10;;
3343;SDS011;1685;53.104;8.228;2023-03-01T14:38:30;20.90;;;14.20;;
3343;SDS011;1685;53.104;8.228;2023-03-01T14:41:01;24.13;;;13.33;;
3343;SDS011;1685;53.104;8.228;2023-03-01T14:43:30;22.40;;;14.53;;
3343;SDS011;1685;53.104;8.228;2023-03-01T14:45:57;19.63;;;13.77;;
3343;SDS011;1685;53.104;8.228;2023-03-01T14:48:25;19.33;;;14.53;;
3343;SDS011;1685;53.104;8.228;2023-03-01T14:50:54;19.67;;;14.60;;
3343;SDS011;1685;53.104;8.228;2023-03-01T14:53:21;22.60;;;14.77;;
3343;SDS011;1685;53.104;8.228;2023-03-01T14:55:53;18.57;;;12.20;;
3343;SDS011;1685;53.104;8.228;2023-03-01T14:58:21;21.43;;;14.40;;
3343;SDS011;1685;53.104;8.228;2023-03-01T15:00:50;21.30;;;15.47;;
3343;SDS011;1685;53.104;8.228;2023-03-01T15:03:23;21.23;;;15.03;;
3343;SDS011;1685;53.104;8.228;2023-03-01T15:05:53;18.10;;;13.40;;
3343;SDS011;1685;53.104;8.228;2023-03-01T15:08:21;20.17;;;14.87;;
3343;SDS011;1685;53.104;8.228;2023-03-01T15:10:59;20.33;;;14.10;;
3343;SDS011;1685;53.104;8.228;2023-03-01T15:13:30;19.20;;;14.20;;
3343;SDS011;1685;53.104;8.228;2023-03-01T15:16:05;21.83;;;14.60;;
3343;SDS011;1685;53.104;8.228;2023-03-01T15:18:35;24.53;;;16.50;;
3343;SDS011;1685;53.104;8.228;2023-03-01T15:21:06;20.40;;;14.77;;
3343;SDS011;1685;53.104;8.228;2023-03-01T15:23:34;23.10;;;16.97;;
3343;SDS011;1685;53.104;8.228;2023-03-01T15:26:06;24.70;;;16.27;;
3343;SDS011;1685;53.104;8.228;2023-03-01T15:28:49;20.97;;;15.60;;